createdAt,value
2019-04-30T00:00:18.208Z,64.65
2019-04-30T00:02:55.053Z,72.40
2019-04-30T00:05:27.115Z,63.45
2019-04-30T00:08:00.035Z,70.60
2019-04-30T00:13:10.370Z,70.65
2019-04-30T00:15:40.810Z,74.00
2019-04-30T00:18:15.707Z,65.00
2019-04-30T00:20:48.474Z,67.25
2019-04-30T00:23:22.682Z,63.65
2019-04-30T00:25:58.315Z,66.20
2019-04-30T00:28:29.836Z,48.13
2019-04-30T00:31:02.917Z,55.20
2019-04-30T00:33:35.956Z,51.25
2019-04-30T00:36:08.937Z,44.33
2019-04-30T00:38:41.905Z,51.77
2019-04-30T00:43:50.760Z,61.02
2019-04-30T00:46:25.038Z,59.63
2019-04-30T00:49:08.530Z,47.98
2019-04-30T00:51:31.125Z,61.35
2019-04-30T00:54:05.701Z,69.55
2019-04-30T00:56:39.066Z,68.47
2019-04-30T01:01:48.031Z,64.35
2019-04-30T01:04:24.625Z,63.35
2019-04-30T01:06:59.915Z,60.75
2019-04-30T01:09:28.760Z,63.05
2019-04-30T01:12:02.086Z,62.73
2019-04-30T01:17:08.908Z,72.32
2019-04-30T01:19:41.323Z,72.65
2019-04-30T01:22:14.615Z,62.27
2019-04-30T01:27:19.540Z,59.45
2019-04-30T01:29:52.347Z,57.20
2019-04-30T01:32:25.194Z,36.63
2019-04-30T01:34:58.967Z,48.63
2019-04-30T01:37:32.847Z,36.55
2019-04-30T01:40:10.593Z,60.05
2019-04-30T01:42:47.996Z,21.57
2019-04-30T01:45:14.900Z,60.67
2019-04-30T01:47:49.611Z,61.30
2019-04-30T01:50:22.175Z,58.68
2019-04-30T01:55:35.793Z,59.67
2019-04-30T01:58:09.787Z,66.53
2019-04-30T02:00:44.606Z,66.15
2019-04-30T02:03:19.202Z,61.37
2019-04-30T02:05:51.623Z,28.87
2019-04-30T02:08:24.159Z,36.70
2019-04-30T02:10:59.402Z,44.63
2019-04-30T02:13:34.580Z,30.10
2019-04-30T02:16:08.534Z,51.20
2019-04-30T02:18:41.506Z,34.73
2019-04-30T02:21:15.007Z,27.37
2019-04-30T02:23:49.247Z,31.93
2019-04-30T02:26:21.870Z,17.20
2019-04-30T02:28:54.560Z,16.50
2019-04-30T02:31:27.326Z,15.65
2019-04-30T02:34:09.999Z,20.12
2019-04-30T02:36:43.566Z,13.25
2019-04-30T02:39:16.570Z,20.17
2019-04-30T02:41:50.671Z,15.05
2019-04-30T02:44:25.362Z,17.42
2019-04-30T02:47:00.443Z,18.55
2019-04-30T02:49:35.148Z,12.65
2019-04-30T02:52:09.388Z,14.20
2019-04-30T02:54:44.206Z,12.30
2019-04-30T02:57:16.746Z,12.88
2019-04-30T03:02:42.938Z,16.05
2019-04-30T03:05:15.801Z,17.12
2019-04-30T03:07:50.362Z,16.23
2019-04-30T03:10:23.919Z,15.15
2019-04-30T03:12:56.503Z,15.55
2019-04-30T03:15:29.906Z,15.68
2019-04-30T03:18:09.299Z,19.92
2019-04-30T03:20:49.766Z,19.10
2019-04-30T03:23:23.611Z,5.72
2019-04-30T03:25:56.405Z,6.17
2019-04-30T03:28:30.148Z,5.95
2019-04-30T03:31:04.722Z,17.60
2019-04-30T03:33:41.907Z,22.17
2019-04-30T03:36:12.823Z,21.65
2019-04-30T03:38:45.892Z,23.50
2019-04-30T03:41:19.883Z,22.77
2019-04-30T03:43:53.867Z,17.60
2019-04-30T03:46:29.635Z,20.70
2019-04-30T03:49:01.486Z,15.30
2019-04-30T03:51:34.533Z,16.45
2019-04-30T03:54:09.763Z,22.17
2019-04-30T03:56:42.763Z,13.62
2019-04-30T03:59:15.733Z,21.82
2019-04-30T04:04:39.720Z,22.17
2019-04-30T04:07:20.459Z,14.30
2019-04-30T04:09:59.634Z,7.83
2019-04-30T04:12:31.790Z,6.78
2019-04-30T04:15:05.301Z,9.70
2019-04-30T04:17:39.777Z,11.75
2019-04-30T04:20:12.898Z,13.32
2019-04-30T04:22:45.606Z,11.03
2019-04-30T04:25:20.410Z,12.13
2019-04-30T04:27:52.675Z,15.85
2019-04-30T04:32:57.027Z,16.25
2019-04-30T04:35:30.247Z,12.68
2019-04-30T04:38:04.573Z,11.80
2019-04-30T04:40:39.853Z,12.40
2019-04-30T04:43:12.020Z,13.53
2019-04-30T04:45:44.791Z,12.00
2019-04-30T04:50:50.338Z,15.50
2019-04-30T04:53:22.988Z,11.33
2019-04-30T04:55:55.682Z,14.65
2019-04-30T04:58:30.299Z,14.35
2019-04-30T05:01:02.671Z,16.17
2019-04-30T05:03:40.046Z,18.80
2019-04-30T05:06:13.254Z,12.58
2019-04-30T05:08:46.528Z,14.20
2019-04-30T05:11:19.665Z,8.03
2019-04-30T05:13:52.444Z,14.65
2019-04-30T05:16:25.150Z,13.62
2019-04-30T05:18:58.651Z,16.25
2019-04-30T05:21:41.969Z,22.85
2019-04-30T05:24:06.789Z,19.07
2019-04-30T05:26:39.678Z,17.55
2019-04-30T05:29:12.018Z,20.52
2019-04-30T05:31:44.765Z,23.35
2019-04-30T05:34:18.650Z,19.67
2019-04-30T05:36:50.971Z,20.72
2019-04-30T05:39:23.309Z,23.75
2019-04-30T05:41:56.206Z,21.52
2019-04-30T05:44:29.830Z,19.12
2019-04-30T05:47:02.917Z,16.65
2019-04-30T05:49:35.708Z,20.75
2019-04-30T05:52:09.446Z,15.85
2019-04-30T05:54:42.361Z,21.87
2019-04-30T05:57:15.036Z,21.57
2019-04-30T05:59:48.890Z,17.10
2019-04-30T06:04:53.317Z,21.07
2019-04-30T06:07:26.060Z,17.95
2019-04-30T06:10:00.157Z,24.65
2019-04-30T06:12:39.291Z,16.60
2019-04-30T06:15:16.856Z,11.73
2019-04-30T06:18:13.620Z,16.67
2019-04-30T06:20:44.609Z,14.93
2019-04-30T06:23:17.133Z,12.98
2019-04-30T06:25:57.412Z,14.93
2019-04-30T06:28:26.094Z,16.67
2019-04-30T06:30:59.161Z,21.25
2019-04-30T06:33:40.242Z,18.02
2019-04-30T06:36:13.674Z,17.98
2019-04-30T06:38:46.239Z,18.70
2019-04-30T06:41:19.811Z,15.72
2019-04-30T06:43:58.723Z,19.07
2019-04-30T06:46:32.163Z,17.82
2019-04-30T06:49:05.117Z,16.45
2019-04-30T06:51:39.000Z,17.00
2019-04-30T06:54:11.594Z,15.08
2019-04-30T06:59:16.977Z,17.77
2019-04-30T07:01:49.814Z,19.17
2019-04-30T07:04:23.005Z,16.75
2019-04-30T07:09:51.503Z,18.02
2019-04-30T07:12:25.397Z,20.50
2019-04-30T07:14:49.814Z,23.83
2019-04-30T07:17:22.504Z,17.80
2019-04-30T07:19:56.877Z,18.05
2019-04-30T07:22:39.941Z,19.15
2019-04-30T07:25:04.642Z,19.60
2019-04-30T07:27:40.133Z,18.67
2019-04-30T07:30:13.064Z,18.55
2019-04-30T07:32:46.012Z,18.67
2019-04-30T07:37:54.541Z,21.15
2019-04-30T07:40:26.035Z,18.73
2019-04-30T07:42:59.139Z,21.23
2019-04-30T07:45:32.377Z,18.70
2019-04-30T07:48:05.499Z,22.07
2019-04-30T07:53:12.005Z,23.57
2019-04-30T07:55:45.887Z,21.00
2019-04-30T08:00:56.041Z,24.40
2019-04-30T08:03:29.922Z,23.00
2019-04-30T08:06:02.961Z,21.25
2019-04-30T08:08:35.841Z,22.37
2019-04-30T08:11:09.310Z,22.77
2019-04-30T08:13:42.919Z,22.77
2019-04-30T08:16:16.075Z,23.02
2019-04-30T08:21:22.246Z,21.27
2019-04-30T08:23:55.484Z,23.87
2019-04-30T08:29:02.744Z,17.27
2019-04-30T08:31:35.433Z,17.73
2019-04-30T08:34:10.631Z,16.95
2019-04-30T08:36:49.389Z,18.98
2019-04-30T08:39:22.049Z,13.93
2019-04-30T08:41:55.146Z,21.48
2019-04-30T08:44:29.474Z,18.05
2019-04-30T08:47:02.310Z,16.07
2019-04-30T08:49:35.817Z,14.95
2019-04-30T08:52:10.537Z,21.45
2019-04-30T08:54:43.580Z,17.27
2019-04-30T08:57:15.987Z,16.55
2019-04-30T08:59:49.479Z,16.55
2019-04-30T09:02:23.470Z,18.42
2019-04-30T09:05:01.173Z,18.95
2019-04-30T09:07:34.600Z,18.35
2019-04-30T09:10:09.258Z,19.45
2019-04-30T09:12:42.208Z,18.37
2019-04-30T09:15:24.411Z,20.72
2019-04-30T09:18:03.175Z,19.75
2019-04-30T09:20:31.262Z,19.92
2019-04-30T09:23:03.946Z,26.48
2019-04-30T09:28:09.053Z,20.02
2019-04-30T09:33:19.374Z,22.45
2019-04-30T09:35:51.982Z,22.15
2019-04-30T09:38:25.132Z,23.22
2019-04-30T09:40:59.489Z,21.90
2019-04-30T09:43:32.816Z,22.67
2019-04-30T09:48:42.379Z,22.37
2019-04-30T09:51:15.944Z,24.12
2019-04-30T09:53:56.815Z,33.05
2019-04-30T09:56:23.838Z,27.22
2019-04-30T09:58:56.802Z,29.72
2019-04-30T10:01:32.317Z,28.30
2019-04-30T10:04:03.654Z,29.70
2019-04-30T10:09:10.173Z,30.57
2019-04-30T10:11:45.070Z,27.27
2019-04-30T10:14:19.110Z,32.35
2019-04-30T10:17:00.326Z,33.78
2019-04-30T10:19:32.813Z,31.80
2019-04-30T10:22:05.894Z,33.65
2019-04-30T10:24:39.570Z,32.30
2019-04-30T10:27:13.481Z,32.73
2019-04-30T10:29:46.606Z,32.88
2019-04-30T10:32:19.360Z,39.00
2019-04-30T10:34:53.211Z,32.28
2019-04-30T10:39:59.611Z,33.83
2019-04-30T10:42:34.682Z,36.35
2019-04-30T10:45:10.492Z,24.67
2019-04-30T10:47:43.673Z,25.30
2019-04-30T10:50:16.338Z,27.95
2019-04-30T10:52:49.331Z,23.35
2019-04-30T10:55:22.065Z,25.55
2019-04-30T10:57:55.105Z,30.70
2019-04-30T11:00:42.102Z,27.90
2019-04-30T11:03:19.901Z,32.63
2019-04-30T11:05:49.131Z,34.33
2019-04-30T11:08:22.812Z,40.45
2019-04-30T11:10:55.366Z,42.05
2019-04-30T11:13:28.362Z,52.67
2019-04-30T11:16:12.157Z,48.02
2019-04-30T11:18:36.905Z,53.50
2019-04-30T11:21:10.483Z,55.08
2019-04-30T11:23:43.411Z,53.33
2019-04-30T11:26:16.887Z,53.02
2019-04-30T11:28:49.885Z,59.60
2019-04-30T11:31:24.352Z,55.20
2019-04-30T11:34:01.522Z,52.13
2019-04-30T11:36:34.450Z,53.52
2019-04-30T11:39:10.372Z,55.70
2019-04-30T11:41:42.858Z,54.13
2019-04-30T11:44:30.818Z,61.33
2019-04-30T11:47:02.675Z,53.87
2019-04-30T11:49:35.646Z,61.45
2019-04-30T11:52:08.485Z,57.70
2019-04-30T11:54:49.145Z,53.00
2019-04-30T11:57:18.605Z,54.70
2019-04-30T11:59:50.728Z,53.92
2019-04-30T12:02:25.403Z,53.73
2019-04-30T12:05:06.822Z,58.73
2019-04-30T12:07:53.164Z,54.18
2019-04-30T12:10:29.290Z,59.75
2019-04-30T12:13:01.661Z,56.92
2019-04-30T12:15:34.699Z,55.20
2019-04-30T12:18:11.073Z,63.20
2019-04-30T12:20:44.347Z,62.65
2019-04-30T12:23:18.930Z,59.35
2019-04-30T12:25:53.348Z,55.08
2019-04-30T12:28:27.416Z,49.67
2019-04-30T12:31:00.507Z,53.55
2019-04-30T12:33:32.874Z,60.03
2019-04-30T12:36:06.524Z,54.95
2019-04-30T12:38:39.466Z,64.17
2019-04-30T12:41:12.598Z,57.85
2019-04-30T12:43:45.362Z,54.23
2019-04-30T12:46:18.951Z,52.53
2019-04-30T12:48:53.360Z,58.85
2019-04-30T12:51:45.834Z,57.60
2019-04-30T12:54:22.818Z,57.50
2019-04-30T12:57:02.868Z,70.72
2019-04-30T12:59:40.155Z,56.90
2019-04-30T13:02:11.618Z,60.90
2019-04-30T13:04:45.087Z,53.55
2019-04-30T13:07:20.260Z,57.70
2019-04-30T13:09:52.386Z,52.67
2019-04-30T13:12:26.361Z,52.60
2019-04-30T13:14:59.379Z,51.92
2019-04-30T13:17:31.629Z,48.52
2019-04-30T13:20:04.503Z,54.50
2019-04-30T13:22:36.766Z,52.40
2019-04-30T13:25:10.683Z,48.08
2019-04-30T13:27:44.773Z,51.83
2019-04-30T13:30:25.928Z,52.08
2019-04-30T13:33:11.866Z,53.05
2019-04-30T13:35:45.168Z,51.23
2019-04-30T13:40:54.465Z,53.23
2019-04-30T13:43:44.884Z,46.85
2019-04-30T13:46:18.542Z,50.48
2019-04-30T13:48:51.166Z,49.70
2019-04-30T13:53:55.399Z,50.40
2019-04-30T13:56:28.790Z,47.13
2019-04-30T14:01:33.279Z,48.95
2019-04-30T14:04:10.139Z,42.45
2019-04-30T14:06:50.783Z,44.30
2019-04-30T14:09:31.413Z,47.08
2019-04-30T14:12:04.115Z,46.65
2019-04-30T14:14:39.557Z,43.73
2019-04-30T14:17:12.720Z,42.85
2019-04-30T14:19:46.786Z,55.17
2019-04-30T14:22:19.408Z,41.55
2019-04-30T14:24:52.052Z,46.35
2019-04-30T14:27:25.274Z,41.13
2019-04-30T14:29:59.336Z,45.12
2019-04-30T14:32:32.665Z,39.05
2019-04-30T14:35:06.157Z,45.35
2019-04-30T14:37:39.089Z,43.83
2019-04-30T14:40:13.306Z,43.35
2019-04-30T14:42:48.338Z,42.90
2019-04-30T14:45:28.842Z,37.93
2019-04-30T14:48:03.905Z,35.00
2019-04-30T14:50:38.560Z,43.45
2019-04-30T14:53:19.077Z,46.05
2019-04-30T14:56:11.730Z,53.35
2019-04-30T14:59:03.761Z,51.33
2019-04-30T15:01:49.082Z,52.70
2019-04-30T15:04:21.324Z,50.55
2019-04-30T15:06:54.158Z,51.20
2019-04-30T15:09:26.792Z,47.80
2019-04-30T15:12:00.477Z,51.10
2019-04-30T15:14:33.526Z,48.68
2019-04-30T15:17:06.211Z,47.98
2019-04-30T15:19:39.093Z,47.70
2019-04-30T15:22:11.846Z,47.35
2019-04-30T15:24:44.690Z,42.62
2019-04-30T15:27:19.168Z,42.08
2019-04-30T15:29:57.078Z,47.65
2019-04-30T15:32:26.716Z,49.00
2019-04-30T15:35:00.441Z,49.40
2019-04-30T15:37:33.633Z,48.55
2019-04-30T15:42:41.357Z,49.00
2019-04-30T15:45:15.672Z,43.98
2019-04-30T15:47:48.713Z,45.95
2019-04-30T15:50:21.542Z,46.28
2019-04-30T15:52:54.602Z,48.83
2019-04-30T15:55:27.819Z,45.40
2019-04-30T15:58:09.300Z,50.25
2019-04-30T16:00:42.293Z,50.50
2019-04-30T16:03:17.249Z,48.15
2019-04-30T16:05:52.588Z,39.15
2019-04-30T16:08:39.500Z,49.33
2019-04-30T16:11:13.745Z,49.77
2019-04-30T16:13:51.240Z,50.33
2019-04-30T16:16:25.649Z,46.50
2019-04-30T16:18:59.947Z,48.87
2019-04-30T16:21:32.784Z,43.23
2019-04-30T16:24:05.599Z,53.73
2019-04-30T16:29:12.216Z,57.05
2019-04-30T16:31:44.788Z,61.00
2019-04-30T16:34:17.256Z,59.50
2019-04-30T16:36:50.125Z,53.87
2019-04-30T16:39:23.646Z,57.05
2019-04-30T16:41:56.484Z,52.05
2019-04-30T16:44:28.967Z,59.08
2019-04-30T16:47:13.049Z,51.60
2019-04-30T16:49:36.255Z,55.48
2019-04-30T16:52:09.837Z,59.23
2019-04-30T16:54:43.681Z,61.45
2019-04-30T16:57:16.659Z,64.47
2019-04-30T17:02:24.120Z,57.98
2019-04-30T17:05:01.306Z,66.75
2019-04-30T17:07:38.609Z,69.82
2019-04-30T17:10:15.261Z,69.58
2019-04-30T17:12:51.379Z,72.10
2019-04-30T17:15:37.655Z,74.10
2019-04-30T17:18:12.213Z,78.07
2019-04-30T17:20:44.633Z,73.25
2019-04-30T17:23:19.152Z,73.30
2019-04-30T17:25:51.407Z,73.00
2019-04-30T17:28:23.818Z,78.90
2019-04-30T17:30:56.689Z,81.32
2019-04-30T17:36:01.191Z,69.90
2019-04-30T17:38:34.201Z,69.25
2019-04-30T17:41:06.855Z,72.40
2019-04-30T17:43:41.517Z,68.10
2019-04-30T17:46:13.850Z,60.98
2019-04-30T17:48:46.411Z,56.92
2019-04-30T17:51:19.028Z,66.37
2019-04-30T17:54:09.780Z,58.90
2019-04-30T17:56:44.434Z,54.67
2019-04-30T17:59:17.176Z,58.90
2019-04-30T18:01:51.428Z,57.10
2019-04-30T18:04:24.350Z,55.88
2019-04-30T18:06:59.111Z,56.35
2019-04-30T18:09:31.360Z,52.35
2019-04-30T18:12:04.027Z,49.00
2019-04-30T18:14:39.471Z,34.38
2019-04-30T18:17:12.045Z,31.30
2019-04-30T18:22:23.188Z,40.33
2019-04-30T18:24:59.181Z,54.23
2019-04-30T18:27:42.933Z,48.17
2019-04-30T18:30:09.312Z,33.35
2019-04-30T18:32:41.977Z,36.38
2019-04-30T18:35:14.933Z,31.77
2019-04-30T18:37:48.575Z,30.52
2019-04-30T18:40:26.222Z,39.92
2019-04-30T18:42:59.424Z,41.13
2019-04-30T18:45:32.253Z,46.00
2019-04-30T18:48:05.487Z,42.35
2019-04-30T18:50:38.654Z,32.45
2019-04-30T18:53:16.239Z,25.55
2019-04-30T18:55:50.748Z,31.57
2019-04-30T18:58:36.525Z,23.42
2019-04-30T19:00:59.288Z,17.80
2019-04-30T19:03:32.128Z,22.35
2019-04-30T19:06:08.611Z,18.52
2019-04-30T19:08:45.588Z,22.67
2019-04-30T19:11:31.828Z,17.07
2019-04-30T19:14:06.658Z,18.90
2019-04-30T19:16:59.510Z,31.60
2019-04-30T19:19:42.527Z,17.65
2019-04-30T19:22:15.435Z,15.40
2019-04-30T19:24:58.232Z,16.57
2019-04-30T19:27:22.014Z,17.65
2019-04-30T19:29:54.798Z,14.55
2019-04-30T19:32:30.256Z,16.10
2019-04-30T19:35:01.684Z,12.28
2019-04-30T19:37:36.036Z,12.63
2019-04-30T19:40:09.790Z,13.83
2019-04-30T19:42:43.013Z,14.95
2019-04-30T19:45:16.759Z,12.88
2019-04-30T19:47:49.549Z,13.40
2019-04-30T19:50:21.917Z,14.53
2019-04-30T19:52:54.398Z,11.30
2019-04-30T19:55:28.574Z,13.53
2019-04-30T19:58:01.487Z,13.13
2019-04-30T20:00:34.345Z,13.22
2019-04-30T20:03:08.845Z,16.50
2019-04-30T20:05:41.199Z,12.30
2019-04-30T20:08:14.110Z,12.37
2019-04-30T20:10:46.616Z,14.25
2019-04-30T20:13:33.052Z,16.27
2019-04-30T20:15:53.932Z,15.83
2019-04-30T20:18:26.586Z,11.65
2019-04-30T20:23:34.030Z,12.25
2019-04-30T20:26:07.555Z,19.80
2019-04-30T20:28:42.518Z,15.85
2019-04-30T20:31:16.046Z,16.65
2019-04-30T20:33:48.983Z,18.95
2019-04-30T20:38:54.758Z,15.48
2019-04-30T20:41:29.099Z,18.37
2019-04-30T20:44:01.639Z,16.60
2019-04-30T20:46:35.247Z,15.58
2019-04-30T20:49:09.149Z,18.75
2019-04-30T20:51:52.757Z,17.35
2019-04-30T20:54:18.903Z,18.27
2019-04-30T20:56:51.523Z,20.27
2019-04-30T20:59:24.329Z,20.80
2019-04-30T21:01:57.190Z,24.02
2019-04-30T21:04:30.882Z,21.30
2019-04-30T21:07:03.374Z,25.60
2019-04-30T21:09:36.541Z,27.40
2019-04-30T21:12:09.188Z,26.85
2019-04-30T21:14:42.250Z,26.85
2019-04-30T21:17:16.435Z,26.27
2019-04-30T21:22:22.869Z,28.42
2019-04-30T21:24:54.822Z,24.85
2019-04-30T21:27:28.256Z,25.05
2019-04-30T21:30:02.536Z,26.42
2019-04-30T21:32:54.673Z,26.57
2019-04-30T21:35:53.576Z,27.17
2019-04-30T21:38:26.526Z,29.10
2019-04-30T21:41:01.254Z,28.67
2019-04-30T21:43:34.375Z,24.32
2019-04-30T21:48:38.987Z,20.80
2019-04-30T21:53:43.398Z,22.48
2019-04-30T21:56:16.278Z,22.58
2019-04-30T21:58:49.641Z,24.77
2019-04-30T22:01:24.063Z,18.67
2019-04-30T22:03:58.151Z,17.90
2019-04-30T22:06:31.035Z,15.23
2019-04-30T22:11:36.558Z,17.10
2019-04-30T22:14:09.281Z,17.73
2019-04-30T22:16:41.845Z,18.17
2019-04-30T22:19:14.605Z,17.15
2019-04-30T22:21:49.469Z,14.40
2019-04-30T22:24:21.878Z,15.18
2019-04-30T22:26:54.487Z,15.63
2019-04-30T22:29:39.030Z,13.98
2019-04-30T22:32:02.182Z,15.35
2019-04-30T22:34:34.877Z,16.15
2019-04-30T22:37:08.594Z,22.15
2019-04-30T22:39:52.370Z,15.05
2019-04-30T22:42:31.080Z,19.32
2019-04-30T22:45:05.795Z,19.75
2019-04-30T22:47:38.375Z,15.75
2019-04-30T22:50:12.031Z,14.47
2019-04-30T22:52:44.834Z,19.70
2019-04-30T22:57:49.709Z,19.25
2019-04-30T23:03:00.217Z,18.98
2019-04-30T23:05:33.717Z,14.38
2019-04-30T23:08:07.003Z,20.15
2019-04-30T23:13:11.691Z,16.82
2019-04-30T23:15:44.221Z,17.20
2019-04-30T23:18:17.130Z,18.02
2019-04-30T23:20:50.346Z,14.10
2019-04-30T23:25:54.519Z,11.28
2019-04-30T23:28:27.947Z,9.03
2019-04-30T23:31:00.613Z,17.17
2019-04-30T23:33:33.423Z,15.58
2019-04-30T23:36:05.995Z,22.13
2019-04-30T23:38:39.199Z,20.82
2019-04-30T23:41:12.236Z,19.57
2019-04-30T23:43:44.841Z,25.23
2019-04-30T23:46:19.682Z,21.30
2019-04-30T23:48:52.435Z,22.37
2019-04-30T23:53:56.848Z,21.25
2019-04-30T23:56:29.777Z,19.32
2019-04-30T23:59:02.268Z,25.08
